Time;durP1;ratioP1;P1;durP2;ratioP2;P2;SDS_P1;SDS_P2;PMS_P1;PMS_P2;Temp;Humidity;BMP_temperature;BMP_pressure;BME280_temperature;BME280_humidity;BME280_pressure;Samples;Min_cycle;Max_cycle;Signal;HPM_P1;HPM_P2
2021/07/21 00:01:20;;;;;;;10.70;7.22;;;;;;;15.83;58.28;99016.94;5031485;28;20025;-65
2021/07/21 00:03:45;;;;;;;10.55;7.72;;;;;;;15.86;57.52;99014.25;5032698;28;20498;-65
2021/07/21 00:06:11;;;;;;;8.07;7.03;;;;;;;15.90;57.66;99018.44;5029674;28;20072;-65
2021/07/21 00:08:36;;;;;;;7.82;6.38;;;;;;;15.83;57.88;99028.13;5032638;28;20607;-65
2021/07/21 00:13:46;;;;;;;9.60;6.93;;;;;;;15.70;58.10;99020.84;5033454;28;20125;-65
2021/07/21 00:16:15;;;;;;;11.65;6.68;;;;;;;15.67;57.52;99011.44;5030748;28;20780;-65
2021/07/21 00:21:09;;;;;;;9.32;6.55;;;;;;;15.77;57.73;99022.31;5028841;28;20282;-65
2021/07/21 00:23:35;;;;;;;8.45;6.95;;;;;;;15.72;57.51;99019.03;5026919;28;20050;-65
2021/07/21 00:26:01;;;;;;;8.00;7.13;;;;;;;15.58;57.46;99008.31;5034303;28;20048;-65
2021/07/21 00:28:27;;;;;;;8.80;6.28;;;;;;;15.46;58.41;99010.38;5034418;28;20033;-65
2021/07/21 00:30:53;;;;;;;8.43;6.55;;;;;;;15.46;58.56;99012.97;5029408;28;20056;-65
2021/07/21 00:33:18;;;;;;;7.30;6.60;;;;;;;15.35;58.51;99009.91;5028155;28;20362;-65
2021/07/21 00:35:44;;;;;;;8.00;6.40;;;;;;;15.39;58.15;99018.38;5028423;28;20296;-65
2021/07/21 00:38:10;;;;;;;7.68;6.85;;;;;;;15.39;58.63;99015.81;5026253;28;20031;-65
2021/07/21 00:40:35;;;;;;;8.55;6.18;;;;;;;15.50;57.88;99018.91;5034081;28;20021;-65
2021/07/21 00:43:01;;;;;;;9.85;7.45;;;;;;;15.45;58.30;99020.75;5029518;28;20036;-70
2021/07/21 00:45:27;;;;;;;11.15;7.18;;;;;;;15.48;58.11;99010.34;5025103;28;20068;-70
2021/07/21 00:47:52;;;;;;;7.63;6.88;;;;;;;15.40;58.52;99020.91;5023263;28;20054;-70
2021/07/21 00:50:18;;;;;;;10.50;8.05;;;;;;;15.36;58.53;99024.47;5025074;28;20124;-70
2021/07/21 00:52:44;;;;;;;10.02;6.32;;;;;;;15.39;58.77;99031.31;5029367;28;20156;-70
2021/07/21 00:55:12;;;;;;;7.88;6.70;;;;;;;15.43;58.53;99020.81;5030397;28;20033;-70
2021/07/21 00:57:39;;;;;;;10.15;7.03;;;;;;;15.35;58.69;99025.41;5026714;28;20511;-70
2021/07/21 01:00:15;;;;;;;10.35;7.22;;;;;;;15.28;59.00;99026.47;5029896;28;20330;-70
2021/07/21 01:02:42;;;;;;;9.02;7.50;;;;;;;15.25;59.77;99025.72;5030171;28;20025;-70
2021/07/21 01:05:12;;;;;;;11.63;7.72;;;;;;;15.34;59.34;99018.53;5031458;28;20029;-70
2021/07/21 01:07:45;;;;;;;8.23;7.43;;;;;;;15.30;58.92;99024.69;5028479;28;20033;-70
2021/07/21 01:10:11;;;;;;;9.00;7.20;;;;;;;15.34;58.67;99021.13;5025827;28;20290;-70
2021/07/21 01:13:17;;;;;;;9.35;7.45;;;;;;;15.41;57.82;99016.59;5025175;28;20061;-70
2021/07/21 01:15:56;;;;;;;10.10;6.43;;;;;;;15.44;58.32;99025.09;5025552;28;20034;-69
2021/07/21 01:18:35;;;;;;;9.23;6.30;;;;;;;15.42;58.05;99019.13;5028013;28;20124;-70
2021/07/21 01:21:16;;;;;;;8.23;6.22;;;;;;;15.49;57.83;99022.34;5026685;28;20068;-69
2021/07/21 01:23:47;;;;;;;9.65;6.57;;;;;;;15.45;57.49;99016.44;5031765;28;20423;-70
2021/07/21 01:26:26;;;;;;;8.75;7.43;;;;;;;15.39;58.17;99024.41;5030730;28;20083;-70
2021/07/21 01:28:54;;;;;;;9.55;6.43;;;;;;;15.42;57.74;99021.72;5028136;28;20120;-69
2021/07/21 01:31:33;;;;;;;8.35;6.40;;;;;;;15.39;57.77;99023.56;5031932;28;20033;-69
2021/07/21 01:34:01;;;;;;;10.02;6.65;;;;;;;15.38;58.31;99024.44;5027743;28;20676;-69
2021/07/21 01:36:32;;;;;;;8.63;6.32;;;;;;;15.44;58.16;99016.50;5029081;28;20774;-70
2021/07/21 01:39:06;;;;;;;7.38;6.57;;;;;;;15.44;57.43;99013.91;5027930;28;20544;-69
2021/07/21 01:41:36;;;;;;;7.20;6.15;;;;;;;15.44;57.42;99013.91;5029662;28;20030;-70
2021/07/21 01:44:12;;;;;;;7.10;6.18;;;;;;;15.44;57.83;99009.59;5031020;28;20029;-69
2021/07/21 01:46:40;;;;;;;7.80;6.00;;;;;;;15.42;57.60;99016.53;5027499;28;20371;-69
2021/07/21 01:49:08;;;;;;;8.25;5.97;;;;;;;15.42;57.68;99011.38;5027909;28;20028;-69
2021/07/21 01:51:34;;;;;;;7.50;6.03;;;;;;;15.41;57.25;99014.84;5030981;28;20045;-69
2021/07/21 01:54:02;;;;;;;7.43;6.18;;;;;;;15.39;57.64;99019.25;5026404;28;20048;-70
2021/07/21 01:56:30;;;;;;;8.38;6.63;;;;;;;15.38;57.77;99021.84;5031140;28;20033;-70
2021/07/21 01:58:56;;;;;;;8.27;6.43;;;;;;;15.24;58.21;99026.59;5027737;28;20021;-69
2021/07/21 02:01:26;;;;;;;8.57;7.28;;;;;;;15.22;59.23;99016.34;5029330;28;20033;-70
2021/07/21 02:03:56;;;;;;;9.18;6.40;;;;;;;15.26;59.08;99020.53;5027370;28;20581;-69
2021/07/21 02:06:22;;;;;;;9.68;6.95;;;;;;;15.31;58.66;99021.22;5027919;28;20546;-69
2021/07/21 02:08:48;;;;;;;8.57;6.55;;;;;;;15.28;58.61;99025.63;5030682;28;20043;-70
2021/07/21 02:11:14;;;;;;;8.35;6.03;;;;;;;15.34;59.00;99030.59;5029301;28;20048;-69
2021/07/21 02:13:40;;;;;;;8.18;6.65;;;;;;;15.26;58.83;99024.84;5026344;28;20059;-69
2021/07/21 02:16:06;;;;;;;7.78;6.63;;;;;;;15.25;58.54;99021.41;5026787;28;20055;-70
2021/07/21 02:18:33;;;;;;;12.90;6.30;;;;;;;15.29;59.06;99017.81;5025724;28;20417;-70
2021/07/21 02:21:03;;;;;;;8.00;6.68;;;;;;;15.30;59.34;99014.34;5026808;28;20298;-70
2021/07/21 02:23:29;;;;;;;7.28;6.50;;;;;;;15.28;59.79;99026.47;5034823;28;20056;-69
2021/07/21 02:25:59;;;;;;;10.02;7.72;;;;;;;15.23;59.62;99023.22;5030065;28;20511;-70
2021/07/21 02:28:25;;;;;;;8.68;6.65;;;;;;;15.18;59.60;99022.50;5028507;28;20374;-69
2021/07/21 02:30:53;;;;;;;11.60;7.50;;;;;;;15.15;60.52;99022.56;5030446;28;20125;-69
2021/07/21 02:33:22;;;;;;;11.90;7.05;;;;;;;15.08;60.03;99026.25;5030609;28;20137;-69
2021/07/21 02:35:48;;;;;;;9.05;6.93;;;;;;;15.03;60.72;99025.53;5029661;28;20033;-69
2021/07/21 02:38:13;;;;;;;8.45;7.15;;;;;;;15.06;60.81;99025.47;5026944;28;20271;-69
2021/07/21 02:40:41;;;;;;;8.30;6.55;;;;;;;15.02;60.71;99027.28;5026343;28;20033;-69
2021/07/21 02:43:06;;;;;;;10.00;7.43;;;;;;;15.02;60.77;99022.09;5028880;28;20044;-69
2021/07/21 02:45:31;;;;;;;9.32;7.10;;;;;;;14.99;60.83;99027.38;5035215;28;20029;-70
2021/07/21 02:47:57;;;;;;;12.25;6.80;;;;;;;14.91;60.63;99026.75;5024411;28;20432;-69
2021/07/21 02:50:22;;;;;;;9.30;6.82;;;;;;;14.85;61.43;99026.13;5027679;28;20030;-69
2021/07/21 02:53:01;;;;;;;9.80;6.82;;;;;;;14.92;61.45;99032.78;5027367;28;20037;-69
2021/07/21 02:55:32;;;;;;;9.82;7.68;;;;;;;14.73;62.61;99029.88;5028157;28;20048;-69
2021/07/21 02:58:24;;;;;;;8.82;7.30;;;;;;;14.60;63.68;99031.13;5029585;28;20036;-70
2021/07/21 03:00:55;;;;;;;9.15;7.03;;;;;;;14.50;63.96;99027.97;5025387;28;20068;-71
2021/07/21 03:03:20;;;;;;;11.25;8.57;;;;;;;14.36;64.65;99024.09;5027225;28;20030;-69
2021/07/21 03:05:48;;;;;;;10.20;7.93;;;;;;;14.44;63.94;99035.03;5031302;28;20036;-71
2021/07/21 03:08:21;;;;;;;11.82;7.40;;;;;;;14.56;63.45;99039.84;5023185;28;20037;-68
2021/07/21 03:10:47;;;;;;;12.27;7.75;;;;;;;14.49;64.48;99039.19;5025159;28;20088;-69
2021/07/21 03:13:16;;;;;;;12.32;7.97;;;;;;;14.52;64.14;99039.09;5031528;28;20034;-69
2021/07/21 03:15:43;;;;;;;10.65;7.75;;;;;;;14.49;63.62;99041.75;5025845;28;20463;-70
2021/07/21 03:18:14;;;;;;;9.40;7.90;;;;;;;14.64;63.30;99040.47;5024879;28;20043;-69
2021/07/21 03:20:41;;;;;;;10.82;7.22;;;;;;;14.63;63.54;99039.66;5024055;28;20025;-69
2021/07/21 03:23:08;;;;;;;8.32;7.47;;;;;;;14.70;63.83;99040.31;5026522;28;20061;-69
2021/07/21 03:25:34;;;;;;;10.60;7.47;;;;;;;14.69;63.49;99037.75;5028859;28;20033;-69
2021/07/21 03:28:01;;;;;;;11.68;8.13;;;;;;;14.71;63.87;99042.00;5028002;28;20057;-71
2021/07/21 03:30:28;;;;;;;14.15;8.00;;;;;;;14.73;63.97;99044.53;5023091;28;20034;-70
2021/07/21 03:32:55;;;;;;;9.98;8.45;;;;;;;14.77;63.62;99048.69;5029503;28;20044;-70
2021/07/21 03:35:25;;;;;;;12.32;8.02;;;;;;;14.78;63.91;99047.81;5025752;28;20029;-70
2021/07/21 03:37:50;;;;;;;10.02;8.00;;;;;;;14.72;63.52;99048.00;5027934;28;20105;-69
2021/07/21 03:40:18;;;;;;;11.30;7.18;;;;;;;14.80;63.82;99051.22;5030013;28;20116;-69
2021/07/21 03:42:44;;;;;;;11.32;8.55;;;;;;;14.80;63.60;99051.22;5030070;28;20032;-70
2021/07/21 03:45:11;;;;;;;10.90;8.15;;;;;;;14.88;63.58;99054.41;5034373;28;20024;-70
2021/07/21 03:47:41;;;;;;;11.57;8.07;;;;;;;14.96;62.77;99058.47;5030843;28;20168;-70
2021/07/21 03:50:08;;;;;;;10.48;8.38;;;;;;;14.92;63.27;99061.19;5030589;28;20073;-70
2021/07/21 03:52:34;;;;;;;14.43;8.75;;;;;;;14.97;63.14;99062.75;5031356;28;20095;-70
2021/07/21 03:55:02;;;;;;;10.95;7.82;;;;;;;15.08;62.97;99064.97;5031350;28;20144;-70
2021/07/21 03:57:29;;;;;;;10.75;7.97;;;;;;;15.09;63.18;99058.94;5034352;28;20079;-70
2021/07/21 03:59:54;;;;;;;12.23;7.85;;;;;;;15.17;62.66;99066.44;5035464;28;20033;-70
2021/07/21 04:02:21;;;;;;;9.60;8.23;;;;;;;15.21;62.45;99068.88;5026149;28;20021;-71
2021/07/21 04:04:47;;;;;;;12.15;7.93;;;;;;;15.29;62.45;99066.91;5025796;28;20069;-70
2021/07/21 04:07:15;;;;;;;10.35;7.70;;;;;;;15.38;62.46;99068.38;5029345;28;20303;-70
2021/07/21 04:09:42;;;;;;;12.20;9.25;;;;;;;15.39;62.08;99064.91;5031756;28;20032;-70
2021/07/21 04:12:09;;;;;;;11.00;8.02;;;;;;;15.44;61.75;99070.78;5032075;28;20418;-70
2021/07/21 04:14:35;;;;;;;10.57;7.50;;;;;;;15.58;61.98;99075.50;5035788;28;20064;-70
2021/07/21 04:17:01;;;;;;;12.57;7.68;;;;;;;15.62;62.15;99077.94;5031745;28;20854;-70
2021/07/21 04:19:28;;;;;;;13.13;7.65;;;;;;;15.63;61.99;99071.03;5031016;28;20025;-70
2021/07/21 04:21:55;;;;;;;8.85;7.65;;;;;;;15.75;61.36;99074.06;5030255;28;20685;-70
2021/07/21 04:24:22;;;;;;;10.57;7.82;;;;;;;15.88;60.80;99079.69;5030464;28;20507;-70
2021/07/21 04:26:49;;;;;;;8.82;7.30;;;;;;;15.99;60.10;99075.03;5029104;28;20140;-70
2021/07/21 04:29:17;;;;;;;11.02;7.63;;;;;;;16.03;59.94;99078.34;5032009;28;20066;-70
2021/07/21 04:31:44;;;;;;;9.07;6.93;;;;;;;16.07;59.63;99082.50;5034150;28;20059;-70
2021/07/21 04:34:11;;;;;;;8.68;7.28;;;;;;;16.14;59.49;99084.84;5030623;28;20087;-70
2021/07/21 04:36:38;;;;;;;12.35;7.65;;;;;;;16.09;60.18;99078.97;5029128;28;20108;-70
2021/07/21 04:39:05;;;;;;;9.15;7.80;;;;;;;16.30;59.10;99075.63;5028799;28;20378;-70
2021/07/21 04:41:32;;;;;;;9.48;7.70;;;;;;;16.43;58.91;99079.50;5027035;28;20371;-70
2021/07/21 04:43:58;;;;;;;9.90;7.82;;;;;;;16.45;58.32;99069.94;5020550;28;20033;-70
2021/07/21 04:46:24;;;;;;;9.63;7.53;;;;;;;16.49;58.42;99069.81;5034450;28;20037;-71
2021/07/21 04:48:51;;;;;;;11.23;7.32;;;;;;;16.44;58.92;99078.59;5031815;28;20080;-70
2021/07/21 04:51:17;;;;;;;8.93;6.93;;;;;;;16.61;57.70;99079.75;5028740;28;20037;-70
2021/07/21 04:53:43;;;;;;;9.50;7.32;;;;;;;16.79;57.19;99086.88;5030400;28;20040;-70
2021/07/21 04:56:08;;;;;;;9.63;6.53;;;;;;;16.82;57.61;99089.34;5030707;28;20033;-70
2021/07/21 04:58:34;;;;;;;10.02;7.45;;;;;;;16.93;57.28;99091.56;5028098;28;20120;-70
2021/07/21 05:00:59;;;;;;;10.38;6.43;;;;;;;16.84;57.60;99093.59;5028146;28;20029;-70
2021/07/21 05:03:25;;;;;;;10.32;6.82;;;;;;;16.86;57.20;99098.69;5035287;28;20546;-70
2021/07/21 05:05:50;;;;;;;10.30;7.28;;;;;;;17.02;56.61;99098.94;5029585;28;20024;-70
2021/07/21 05:08:16;;;;;;;8.80;7.10;;;;;;;17.20;56.31;99104.28;5030916;28;20329;-70
2021/07/21 05:10:43;;;;;;;10.27;7.22;;;;;;;17.20;56.36;99099.09;5031515;28;20051;-70
2021/07/21 05:13:09;;;;;;;10.73;8.32;;;;;;;17.23;56.22;99104.16;5029010;28;20041;-71
2021/07/21 05:15:35;;;;;;;9.75;8.60;;;;;;;17.29;55.83;99106.53;5026668;28;20124;-70
2021/07/21 05:18:00;;;;;;;9.48;7.90;;;;;;;17.34;56.18;99109.81;5029632;28;20048;-70
2021/07/21 05:20:26;;;;;;;10.65;7.57;;;;;;;17.57;55.36;99121.00;5026994;28;20021;-70
2021/07/21 05:22:51;;;;;;;13.60;7.80;;;;;;;17.56;55.16;99121.94;5031565;28;20064;-70
2021/07/21 05:25:18;;;;;;;8.25;6.93;;;;;;;17.73;54.86;99122.13;5028128;28;20272;-70
2021/07/21 05:27:45;;;;;;;11.05;8.13;;;;;;;17.83;54.26;99123.44;5025238;28;20040;-70
2021/07/21 05:30:11;;;;;;;8.02;7.22;;;;;;;17.87;54.77;99126.75;5025452;28;20046;-70
2021/07/21 05:32:37;;;;;;;11.07;8.45;;;;;;;17.89;54.43;99133.56;5025085;28;20279;-70
2021/07/21 05:35:03;;;;;;;10.00;7.70;;;;;;;17.93;54.38;99123.91;5025024;28;20036;-70
2021/07/21 05:37:30;;;;;;;7.13;6.43;;;;;;;17.98;54.28;99130.63;5028244;28;20037;-70
2021/07/21 05:39:56;;;;;;;8.98;7.05;;;;;;;18.14;54.07;99136.84;5026982;28;20033;-69
2021/07/21 05:42:21;;;;;;;8.30;6.63;;;;;;;18.24;54.20;99138.19;5027978;28;20384;-70
2021/07/21 05:44:47;;;;;;;10.60;7.70;;;;;;;18.41;54.17;99140.06;5029945;28;20404;-70
2021/07/21 05:47:12;;;;;;;9.70;7.38;;;;;;;18.23;53.28;99140.81;5033523;28;20033;-69
2021/07/21 05:49:37;;;;;;;9.10;6.75;;;;;;;18.31;52.89;99140.50;5026750;28;20610;-70
2021/07/21 05:52:03;;;;;;;8.65;6.75;;;;;;;18.16;52.73;99144.59;5026722;28;20379;-72
2021/07/21 05:54:29;;;;;;;12.13;6.43;;;;;;;18.35;52.28;99147.25;5027265;28;20043;-70
2021/07/21 05:56:54;;;;;;;7.00;6.30;;;;;;;18.43;52.45;99138.22;5031262;28;20036;-70
2021/07/21 05:59:20;;;;;;;8.88;6.53;;;;;;;18.41;52.58;99144.41;5031583;28;20421;-70
2021/07/21 06:01:45;;;;;;;10.70;6.80;;;;;;;18.56;51.68;99130.78;5030543;28;20061;-70
2021/07/21 06:04:11;;;;;;;8.75;6.43;;;;;;;18.60;51.62;99135.78;5029457;28;20438;-69
2021/07/21 06:06:36;;;;;;;8.77;6.68;;;;;;;18.73;51.39;99148.22;5030033;28;20045;-73
2021/07/21 06:09:03;;;;;;;8.10;7.30;;;;;;;18.73;50.72;99143.88;5022413;28;20037;-71
2021/07/21 06:11:28;;;;;;;6.85;6.20;;;;;;;18.71;50.74;99150.91;5028637;28;20107;-72
2021/07/21 06:13:57;;;;;;;6.35;5.75;;;;;;;18.81;50.60;99148.72;5032368;28;20033;-71
2021/07/21 06:16:23;;;;;;;7.55;6.53;;;;;;;18.97;50.58;99142.78;5026947;28;20307;-70
2021/07/21 06:18:49;;;;;;;6.85;5.70;;;;;;;19.06;49.96;99150.16;5030056;28;20033;-71
2021/07/21 06:21:14;;;;;;;6.70;6.00;;;;;;;19.05;50.82;99150.25;5027642;28;20034;-71
2021/07/21 06:23:40;;;;;;;7.72;6.10;;;;;;;19.41;49.78;99150.31;5026131;28;20725;-71
2021/07/21 06:26:05;;;;;;;7.95;6.72;;;;;;;19.65;49.26;99150.97;5026304;28;20291;-71
2021/07/21 06:28:31;;;;;;;7.72;6.07;;;;;;;19.74;48.65;99153.97;5029252;28;20295;-71
2021/07/21 06:30:56;;;;;;;7.07;6.43;;;;;;;19.68;48.43;99150.81;5024763;28;20037;-71
2021/07/21 06:33:22;;;;;;;8.48;6.13;;;;;;;19.67;48.92;99144.78;5027791;28;20044;-71
2021/07/21 06:35:48;;;;;;;7.38;5.82;;;;;;;19.80;49.29;99158.03;5027542;28;20041;-71
2021/07/21 06:38:14;;;;;;;7.97;5.43;;;;;;;19.86;48.73;99161.19;5027663;28;20410;-71
2021/07/21 06:40:40;;;;;;;7.30;6.63;;;;;;;20.03;49.03;99160.34;5028588;28;20064;-72
2021/07/21 06:43:06;;;;;;;7.80;6.20;;;;;;;20.35;47.92;99157.06;5026090;28;20045;-72
2021/07/21 06:45:31;;;;;;;7.13;5.95;;;;;;;20.25;48.28;99152.34;5024714;28;20072;-69
2021/07/21 06:47:57;;;;;;;9.15;6.15;;;;;;;19.97;48.67;99153.72;5026143;28;20041;-70
2021/07/21 06:50:23;;;;;;;6.00;5.28;;;;;;;20.23;47.58;99159.41;5025982;28;20116;-70
2021/07/21 06:52:49;;;;;;;5.90;5.05;;;;;;;20.51;46.44;99160.56;5024461;28;20037;-70
2021/07/21 06:55:15;;;;;;;6.65;5.65;;;;;;;20.76;45.00;99149.72;5028332;28;20041;-70
2021/07/21 06:57:40;;;;;;;6.50;4.65;;;;;;;20.97;44.85;99146.00;5031855;28;20298;-70
2021/07/21 07:00:07;;;;;;;8.13;5.25;;;;;;;21.16;44.62;99152.88;5027386;28;20060;-71
2021/07/21 07:02:33;;;;;;;5.93;5.43;;;;;;;21.09;44.62;99151.50;5030931;28;20397;-70
2021/07/21 07:04:58;;;;;;;4.93;4.53;;;;;;;21.29;44.33;99148.69;5027394;28;20052;-70
2021/07/21 07:07:23;;;;;;;6.60;5.18;;;;;;;21.23;44.15;99151.63;5025064;28;20042;-71
2021/07/21 07:09:49;;;;;;;6.95;5.05;;;;;;;21.19;44.23;99150.09;5027898;28;20136;-71
2021/07/21 07:12:15;;;;;;;6.25;5.65;;;;;;;21.33;43.99;99151.03;5028830;28;20033;-70
2021/07/21 07:14:41;;;;;;;6.55;5.43;;;;;;;21.37;43.53;99152.56;5027226;28;20536;-70
2021/07/21 07:17:07;;;;;;;5.80;5.25;;;;;;;21.27;43.77;99145.31;5026128;28;20034;-70
2021/07/21 07:19:32;;;;;;;5.97;4.95;;;;;;;21.36;43.47;99150.88;5032262;28;20086;-70
2021/07/21 07:21:59;;;;;;;8.45;5.53;;;;;;;21.17;44.40;99155.41;5031960;28;20116;-70
2021/07/21 07:24:25;;;;;;;6.63;5.70;;;;;;;21.33;44.01;99150.19;5033609;28;20053;-70
2021/07/21 07:26:51;;;;;;;6.68;5.18;;;;;;;21.49;43.23;99151.03;5032666;28;20044;-70
2021/07/21 07:29:16;;;;;;;5.75;4.93;;;;;;;21.54;43.40;99159.47;5032965;28;20370;-71
2021/07/21 07:31:42;;;;;;;6.57;5.95;;;;;;;21.52;43.96;99155.25;5027344;28;20159;-71
2021/07/21 07:34:07;;;;;;;8.50;5.47;;;;;;;21.22;43.90;99163.81;5032778;28;20690;-71
2021/07/21 07:36:33;;;;;;;10.20;6.32;;;;;;;21.45;43.69;99152.13;5025382;28;20079;-71
2021/07/21 07:38:58;;;;;;;10.35;5.15;;;;;;;21.39;43.57;99147.25;5026621;28;20056;-71
2021/07/21 07:41:24;;;;;;;6.72;5.65;;;;;;;21.61;42.85;99154.72;5031263;28;20021;-71
2021/07/21 07:43:51;;;;;;;5.75;5.25;;;;;;;21.82;42.46;99153.53;5030697;28;20029;-71
2021/07/21 07:46:17;;;;;;;6.82;5.20;;;;;;;21.92;42.22;99149.53;5030241;28;20037;-71
2021/07/21 07:48:42;;;;;;;8.20;5.22;;;;;;;21.58;42.98;99153.16;5035260;28;20079;-71
2021/07/21 07:51:07;;;;;;;6.38;5.60;;;;;;;21.58;43.21;99152.31;5028334;28;20026;-69
2021/07/21 07:53:33;;;;;;;5.20;4.70;;;;;;;21.68;43.80;99148.25;5028590;28;20437;-70
2021/07/21 07:55:58;;;;;;;7.30;5.32;;;;;;;21.40;43.56;99151.53;5028587;28;20033;-70
2021/07/21 07:58:24;;;;;;;5.43;4.93;;;;;;;21.60;42.57;99151.28;5026819;28;20029;-70
2021/07/21 08:00:50;;;;;;;10.38;6.53;;;;;;;21.79;42.08;99153.72;5031451;28;20156;-71
2021/07/21 08:03:15;;;;;;;7.57;5.03;;;;;;;21.87;42.76;99146.28;5027158;28;20029;-70
2021/07/21 08:05:42;;;;;;;6.20;5.60;;;;;;;21.97;42.60;99154.47;5033608;28;20318;-71
2021/07/21 08:08:07;;;;;;;8.00;5.72;;;;;;;22.13;42.84;99155.28;5035211;28;20022;-70
2021/07/21 08:10:33;;;;;;;5.97;5.38;;;;;;;22.22;42.83;99141.69;5027375;28;20030;-70
2021/07/21 08:12:59;;;;;;;6.35;5.32;;;;;;;22.22;41.15;99157.38;5035865;28;20126;-70
2021/07/21 08:15:24;;;;;;;6.15;4.90;;;;;;;22.50;40.28;99153.97;5030707;28;20033;-70
2021/07/21 08:17:50;;;;;;;5.90;5.35;;;;;;;22.65;39.05;99151.31;5025790;28;20049;-70
2021/07/21 08:20:16;;;;;;;6.35;5.68;;;;;;;22.55;40.08;99154.53;5029359;28;20345;-70
2021/07/21 08:22:42;;;;;;;5.53;5.00;;;;;;;22.45;39.62;99145.59;5027153;28;20046;-70
2021/07/21 08:25:13;;;;;;;6.32;5.28;;;;;;;22.55;39.16;99147.56;5027717;28;20079;-70
2021/07/21 08:27:39;;;;;;;5.55;5.10;;;;;;;22.72;39.74;99141.34;5025938;28;20025;-70
2021/07/21 08:30:11;;;;;;;6.40;5.68;;;;;;;22.63;39.64;99137.47;5029309;28;20437;-70
2021/07/21 08:32:39;;;;;;;5.47;4.97;;;;;;;22.79;38.71;99147.06;5026542;28;20029;-71
2021/07/21 08:35:05;;;;;;;6.20;5.32;;;;;;;22.83;38.57;99140.72;5034393;28;20043;-72
2021/07/21 08:37:30;;;;;;;6.80;5.25;;;;;;;22.89;37.96;99145.56;5030179;28;20029;-71
2021/07/21 08:39:56;;;;;;;6.55;5.43;;;;;;;22.85;38.49;99144.06;5029530;28;20029;-71
2021/07/21 08:42:21;;;;;;;5.78;4.78;;;;;;;22.93;38.50;99149.66;5026493;28;20030;-70
2021/07/21 08:44:46;;;;;;;5.55;5.05;;;;;;;22.87;37.12;99144.81;5032513;28;20110;-70
2021/07/21 08:47:12;;;;;;;5.10;4.57;;;;;;;22.86;37.20;99151.81;5028004;28;20053;-70
2021/07/21 08:49:37;;;;;;;5.13;4.63;;;;;;;23.04;37.18;99152.47;5030891;28;20114;-70
2021/07/21 08:52:03;;;;;;;6.38;5.80;;;;;;;23.04;37.87;99142.81;5030033;28;20405;-70
2021/07/21 08:54:30;;;;;;;5.72;5.13;;;;;;;23.17;37.15;99156.00;5026373;28;20029;-70
2021/07/21 08:56:57;;;;;;;6.20;5.60;;;;;;;23.29;37.39;99149.19;5028128;28;20025;-70
2021/07/21 08:59:26;;;;;;;5.68;5.15;;;;;;;23.22;37.58;99149.53;5030432;28;20021;-70
2021/07/21 09:01:52;;;;;;;5.03;4.53;;;;;;;23.26;36.78;99149.34;5032592;28;20350;-70
2021/07/21 09:04:18;;;;;;;5.68;5.18;;;;;;;23.51;37.02;99160.84;5030149;28;20033;-71
2021/07/21 09:06:43;;;;;;;5.93;5.32;;;;;;;23.57;36.65;99167.47;5026528;28;20116;-70
2021/07/21 09:09:09;;;;;;;6.10;5.50;;;;;;;23.49;36.79;99162.72;5023709;28;20318;-70
2021/07/21 09:11:36;;;;;;;5.15;4.72;;;;;;;23.63;36.70;99167.94;5028248;28;20022;-70
2021/07/21 09:14:02;;;;;;;7.47;4.88;;;;;;;23.26;37.52;99154.56;5028887;28;20477;-68
2021/07/21 09:16:28;;;;;;;6.75;4.82;;;;;;;23.54;36.98;99158.03;5030354;28;20044;-68
2021/07/21 09:18:57;;;;;;;6.82;5.53;;;;;;;23.64;35.91;99160.91;5029162;28;20392;-69
2021/07/21 09:21:23;;;;;;;6.00;5.40;;;;;;;23.87;35.74;99164.66;5030642;28;20017;-69
2021/07/21 09:23:52;;;;;;;5.60;5.05;;;;;;;23.77;35.79;99155.72;5026205;28;20037;-69
2021/07/21 09:26:40;;;;;;;5.75;5.18;;;;;;;23.81;36.40;99160.66;5028917;28;20056;-69
2021/07/21 09:29:06;;;;;;;9.35;5.13;;;;;;;23.99;35.30;99158.63;5028442;28;20091;-69
2021/07/21 09:31:39;;;;;;;5.75;5.25;;;;;;;23.60;36.38;99148.94;5029975;28;20037;-69
2021/07/21 09:34:15;;;;;;;6.97;6.22;;;;;;;23.81;36.53;99146.72;5022595;28;20036;-68
2021/07/21 09:36:41;;;;;;;6.97;6.28;;;;;;;23.78;36.34;99152.16;5029506;28;20187;-68
2021/07/21 09:39:10;;;;;;;5.68;5.05;;;;;;;23.92;36.34;99150.34;5028178;28;20124;-68
2021/07/21 09:41:37;;;;;;;6.68;5.75;;;;;;;24.10;36.20;99145.69;5026801;28;20104;-68
2021/07/21 09:44:05;;;;;;;6.60;5.32;;;;;;;24.20;36.29;99140.69;5026801;28;20033;-68
2021/07/21 09:46:34;;;;;;;6.53;5.25;;;;;;;24.11;36.24;99147.34;5030869;28;20033;-68
2021/07/21 09:49:01;;;;;;;5.70;5.13;;;;;;;24.25;35.87;99144.69;5024251;28;20041;-68
2021/07/21 09:51:32;;;;;;;5.72;5.20;;;;;;;24.33;35.43;99147.63;5031971;28;20322;-68
2021/07/21 09:54:15;;;;;;;9.85;6.55;;;;;;;24.23;36.16;99143.13;5027481;28;20031;-69
2021/07/21 09:56:41;;;;;;;7.97;5.57;;;;;;;24.17;36.06;99138.28;5030337;28;20091;-68
2021/07/21 09:59:30;;;;;;;7.68;5.45;;;;;;;24.18;36.22;99138.19;5022765;28;20033;-68
2021/07/21 10:01:56;;;;;;;6.22;5.63;;;;;;;24.28;36.36;99134.00;5027740;28;20025;-69
2021/07/21 10:04:37;;;;;;;5.82;5.25;;;;;;;24.60;35.78;99131.00;5027671;28;20064;-68
2021/07/21 10:07:17;;;;;;;5.75;5.22;;;;;;;24.34;35.71;99132.75;5031237;28;20354;-69
2021/07/21 10:09:43;;;;;;;6.85;5.90;;;;;;;24.10;36.32;99136.00;5027984;28;20434;-68
2021/07/21 10:12:18;;;;;;;6.43;5.82;;;;;;;24.41;35.18;99134.84;5025745;28;20116;-68
2021/07/21 10:14:58;;;;;;;6.80;6.07;;;;;;;24.33;35.80;99137.16;5023816;28;20109;-68
2021/07/21 10:17:23;;;;;;;6.60;5.88;;;;;;;24.53;35.65;99122.69;5023295;28;20080;-68
2021/07/21 10:19:49;;;;;;;6.15;5.65;;;;;;;24.23;36.27;99136.06;5022497;28;20033;-69
2021/07/21 10:22:15;;;;;;;5.45;5.00;;;;;;;24.26;35.87;99135.88;5024985;28;20036;-68
2021/07/21 10:24:40;;;;;;;6.50;5.78;;;;;;;24.43;35.00;99132.97;5025427;28;20044;-68
2021/07/21 10:27:07;;;;;;;6.90;6.30;;;;;;;24.81;35.12;99121.66;5030410;28;20615;-67
2021/07/21 10:29:34;;;;;;;6.35;5.75;;;;;;;24.58;35.10;99121.44;5025672;28;20037;-69
2021/07/21 10:31:59;;;;;;;6.72;6.05;;;;;;;24.61;35.22;99130.06;5028073;28;20028;-69
2021/07/21 10:34:26;;;;;;;6.70;6.00;;;;;;;24.65;34.58;99126.28;5025454;28;20044;-70
2021/07/21 10:36:52;;;;;;;6.63;6.03;;;;;;;24.64;35.01;99128.06;5028483;28;20036;-69
2021/07/21 10:39:35;;;;;;;10.95;9.43;;;;;;;24.81;35.16;99124.28;5027139;28;20208;-69
2021/07/21 10:42:10;;;;;;;6.55;5.55;;;;;;;24.98;34.88;99121.34;5018046;28;20057;-69
2021/07/21 10:44:36;;;;;;;6.80;6.10;;;;;;;24.47;36.03;99131.81;5034501;28;20453;-69
2021/07/21 10:47:20;;;;;;;8.30;6.15;;;;;;;24.57;35.89;99124.16;5027104;28;20057;-69
2021/07/21 10:49:51;;;;;;;7.93;7.05;;;;;;;24.31;35.40;99128.56;5027066;28;20048;-69
2021/07/21 11:00:19;;;;;;;6.57;5.70;;;;;;;24.76;35.33;99121.13;5031122;28;20095;-69
2021/07/21 11:02:45;;;;;;;7.80;6.03;;;;;;;24.16;35.87;99113.84;5034784;28;20512;-69
2021/07/21 11:05:26;;;;;;;6.72;5.85;;;;;;;24.86;36.07;99114.34;5028767;28;20033;-69
2021/07/21 11:07:53;;;;;;;6.75;6.15;;;;;;;25.05;34.72;99113.88;5032631;28;20036;-70
2021/07/21 11:10:50;;;;;;;7.13;6.45;;;;;;;24.81;35.22;99122.50;5031723;28;20325;-70
2021/07/21 11:13:27;;;;;;;6.70;5.82;;;;;;;24.99;34.92;99112.53;5019499;28;20075;-68
2021/07/21 11:15:54;;;;;;;7.40;6.05;;;;;;;25.09;35.11;99116.19;5028325;28;20041;-68
2021/07/21 11:18:22;;;;;;;6.70;6.07;;;;;;;24.82;35.27;99112.84;5029872;28;20053;-69
2021/07/21 11:20:57;;;;;;;7.10;6.43;;;;;;;25.04;34.80;99120.91;5030335;28;20026;-69
2021/07/21 11:23:53;;;;;;;8.48;5.75;;;;;;;25.47;34.56;99108.19;5029838;28;20060;-69
2021/07/21 11:26:29;;;;;;;8.77;6.63;;;;;;;25.36;34.10;99111.59;5027658;28;20028;-69
2021/07/21 11:28:56;;;;;;;8.05;6.47;;;;;;;25.37;34.19;99109.81;5027910;28;20278;-69
2021/07/21 11:31:53;;;;;;;6.72;6.13;;;;;;;25.43;33.85;99098.84;5032831;28;20387;-69
2021/07/21 11:34:31;;;;;;;7.25;6.63;;;;;;;25.41;34.50;99101.63;5030739;28;20048;-69
2021/07/21 11:37:05;;;;;;;7.53;6.05;;;;;;;25.04;34.93;99093.84;5029594;28;20040;-68
2021/07/21 11:39:47;;;;;;;6.90;6.22;;;;;;;24.96;34.71;99100.47;5030849;28;20385;-69
2021/07/21 11:42:26;;;;;;;8.52;7.32;;;;;;;25.11;34.22;99101.16;5032836;28;20033;-70
2021/07/21 11:45:04;;;;;;;6.85;6.05;;;;;;;25.29;34.09;99102.47;5029632;28;20025;-74
2021/07/21 11:47:34;;;;;;;7.47;6.47;;;;;;;25.44;34.10;99100.53;5028293;28;20456;-69
2021/07/21 11:50:02;;;;;;;6.85;6.22;;;;;;;25.32;34.14;99091.78;5026187;28;20235;-69